Latest Weather Observations for Combienbar

IDV60801

Issued at 7:05 pm EST Tuesday 16 September 2014 (issued every 30 minutes, with the page automatically refreshed every 10 minutes)

About weather observations | Map of weather stations | Latest weather observations for VIC | Other Formats
Station Details ID: 084143 Name: COMBIENBAR AWS Lat: -37.34 Lon: 149.02 Height: 640.0 m
Data from the previous 72 hours. | See also: Recent months at Combienbar
Date/Time
EST
Temp
°C
App
Temp
°C
Dew
Point
Rel
Hum
%
Delta-T
°C
Wind Press
QNH
hPa
Press
MSL
hPa
Rain
since 9 am
mm
Dir
 
Spd
km/h
Gust
km/h
Spd
kts
Gust
kts
16/07:00pm 9.6 9.0 9.0 96 0.3 SW 2 6 1 3 1009.1 1008.6 5.4
16/06:30pm 9.7 8.7 8.9 95 0.4 SSW 4 15 2 8 1008.8 1008.3 4.0
16/06:00pm 9.9 9.6 8.8 93 0.6 CALM 0 0 0 0 1008.5 1008.0 2.0
16/05:30pm 10.0 9.7 8.8 92 0.6 CALM 0 4 0 2 1008.0 1007.5 1.6
16/05:00pm 10.6 9.8 8.2 85 1.2 SW 2 4 1 2 1007.5 1007.0 1.0
16/04:30pm 11.1 10.8 8.5 84 1.3 CALM 0 0 0 0 1007.0 1006.5 1.0
16/04:00pm 11.5 10.4 8.4 81 1.6 W 4 15 2 8 1006.6 1006.1 0.8
16/03:30pm 13.6 13.7 10.2 80 1.8 CALM 0 4 0 2 1006.4 1005.8 0.6
16/03:00pm 14.0 14.2 10.4 79 2.0 CALM 0 0 0 0 1006.2 1005.6 0.6
16/02:30pm 16.3 16.6 10.8 70 3.0 CALM 0 2 0 1 1005.5 1005.0 0.6
16/02:00pm 15.8 15.7 9.5 66 3.4 CALM 0 2 0 1 1005.9 1005.4 0.6
16/01:30pm 14.8 15.2 11.2 79 2.0 CALM 0 2 0 1 1006.4 1005.8 0.0
16/01:00pm 18.1 17.9 11.7 66 3.6 N 4 6 2 3 1006.5 1006.0 0.0
16/12:30pm 16.9 16.6 11.6 71 3.0 NNE 4 7 2 4 1006.8 1006.3 0.0
16/12:00pm 17.8 18.4 12.0 69 3.3 CALM 0 7 0 4 1007.5 1007.0 0.0
16/11:30am 18.3 18.1 11.8 66 3.7 NNE 4 7 2 4 1008.1 1007.6 0.0
16/11:00am 16.7 16.0 10.1 65 3.6 NE 4 9 2 5 1008.6 1008.1 0.0
16/10:30am 17.3 16.7 11.8 70 3.1 NNE 6 9 3 5 1008.9 1008.4 0.0
16/10:00am 14.2 13.7 10.6 79 2.0 NNE 4 6 2 3 1009.1 1008.6 0.0
16/09:30am 13.2 13.0 9.1 76 2.1 CALM 0 7 0 4 1009.4 1009.0 0.0
16/09:00am 12.4 11.4 8.7 78 1.9 NNE 4 11 2 6 1009.7 1009.2 2.0
16/08:30am 11.7 11.1 7.6 76 2.1 ENE 0 0 0 0 1009.2 1008.8 2.0
16/08:00am 11.0 9.6 7.3 78 1.8 NNE 4 9 2 5 1009.6 1009.1 2.0
16/07:30am 10.4 9.3 6.9 79 1.7 N 2 9 1 5 1009.8 1009.3 2.0
16/07:00am 9.5 9.0 7.9 90 0.8 CALM 0 4 0 2 1009.8 1009.3 2.0
16/06:30am 9.4 8.2 8.0 91 0.7 NNE 4 7 2 4 1010.0 1009.5 2.0
16/06:00am 9.3 7.7 8.2 93 0.6 NNE 6 9 3 5 1010.2 1009.7 2.0
16/05:30am 9.8 9.4 8.1 89 0.9 CALM 0 0 0 0 1010.6 1010.2 2.0
16/05:00am 9.6 8.8 8.2 91 0.7 NNE 2 7 1 4 1010.8 1010.4 2.0
16/04:30am 9.5 8.8 8.7 95 0.4 SSE 2 6 1 3 1010.8 1010.4 2.0
16/04:00am 9.3 9.0 8.7 96 0.3 CALM 0 2 0 1 1010.9 1010.5 2.0
16/03:30am 9.2 8.5 8.6 96 0.3 NNE 2 4 1 2 1011.2 1010.7 2.0
16/03:00am 9.4 8.4 8.8 96 0.3 NNE 4 7 2 4 1011.3 1010.8 2.0
16/02:30am 9.4 8.4 8.8 96 0.3 N 4 7 2 4 1011.5 1011.0 1.8
16/02:00am 9.2 8.9 8.7 97 0.3 CALM 0 0 0 0 1012.0 1011.6 1.6
16/01:30am 9.3 9.0 8.7 96 0.3 CALM 0 0 0 0 1012.4 1012.0 1.6
16/01:00am 9.4 8.8 8.8 96 0.3 NNE 2 7 1 4 1012.7 1012.3 1.6
16/12:30am 9.4 8.8 8.8 96 0.3 NNE 2 4 1 2 1013.3 1012.9 1.6
16/12:00am 9.5 8.5 8.9 96 0.3 NNE 4 4 2 2 1013.6 1013.2 1.4
 
Date/Time
EST
Temp
°C
App
Temp
°C
Dew
Point
Rel
Hum
%
Delta-T
°C
Wind Press
QNH
hPa
Press
MSL
hPa
Rain
since 9 am
mm
Dir
 
Spd
km/h
Gust
km/h
Spd
kts
Gust
kts
15/11:30pm 9.5 9.3 8.9 96 0.3 CALM 0 2 0 1 1013.9 1013.5 1.4
15/11:00pm 9.8 9.6 9.0 95 0.4 CALM 0 0 0 0 1014.4 1014.0 1.4
15/10:30pm 9.8 9.6 9.0 95 0.4 CALM 0 0 0 0 1015.0 1014.6 1.4
15/10:00pm 10.0 9.8 8.9 93 0.6 CALM 0 0 0 0 1015.1 1014.7 1.0
15/09:30pm 10.5 10.1 8.4 87 1.1 CALM 0 0 0 0 1015.2 1014.8 0.0
15/09:00pm 10.5 10.2 8.8 89 0.9 CALM 0 0 0 0 1015.1 1014.7 0.0
15/08:30pm 10.4 9.4 8.8 90 0.8 NNE 4 9 2 5 1014.8 1014.4 0.0
15/08:00pm 10.4 9.4 8.8 90 0.8 NNE 4 7 2 4 1014.8 1014.4 0.0
15/07:30pm 10.6 9.6 8.9 89 0.9 NNE 4 4 2 2 1014.8 1014.4 0.0
15/07:00pm 10.7 10.1 9.0 89 0.9 NNE 2 6 1 3 1014.7 1014.3 0.0
15/06:30pm 10.8 10.6 9.1 89 0.9 CALM 0 0 0 0 1014.7 1014.3 0.0
15/06:00pm 10.9 10.7 9.2 89 0.9 CALM 0 0 0 0 1014.7 1014.3 0.0
15/05:30pm 11.7 11.6 9.6 87 1.1 CALM 0 0 0 0 1014.7 1014.3 0.0
15/05:00pm 12.4 12.0 9.6 83 1.5 NNE 2 4 1 2 1014.6 1014.2 0.0
15/04:30pm 12.7 12.7 9.7 82 1.6 CALM 0 4 0 2 1014.6 1014.2 0.0
15/04:00pm 13.1 13.1 9.9 81 1.7 CALM 0 0 0 0 1014.4 1014.0 0.0
15/03:30pm 13.4 12.9 9.3 76 2.2 ESE 2 6 1 3 1014.6 1014.2 0.0
15/03:00pm 13.8 13.6 9.0 73 2.5 CALM 0 0 0 0 1014.8 1014.4 0.0
15/02:30pm 13.0 12.8 9.1 77 2.0 CALM 0 0 0 0 1015.1 1014.7 0.0
15/02:00pm 13.3 13.1 9.0 75 2.2 CALM 0 0 0 0 1015.2 1014.8 0.0
15/01:30pm 13.5 13.2 8.8 73 2.4 CALM 0 2 0 1 1015.4 1015.0 0.0
15/01:00pm 13.7 13.4 8.7 72 2.6 CALM 0 0 0 0 1015.6 1015.2 0.0
15/12:30pm 15.1 14.8 8.6 65 3.4 CALM 0 2 0 1 1015.8 1015.4 0.0
15/12:00pm 15.3 14.8 7.8 61 3.9 CALM 0 4 0 2 1016.3 1015.9 0.0
15/11:30am 14.4 14.1 8.8 69 2.9 CALM 0 2 0 1 1016.7 1016.3 0.0
15/11:00am 13.4 12.8 7.2 66 3.1 CALM 0 0 0 0 1017.1 1016.7 0.0
15/10:30am 12.9 12.2 6.9 67 3.0 CALM 0 4 0 2 1017.3 1017.0 0.0
15/10:00am 13.3 12.2 6.9 65 3.2 SE 2 4 1 2 1017.7 1017.4 0.0
15/09:30am 12.8 11.6 6.6 66 3.1 E 2 4 1 2 1017.7 1017.4 0.0
15/09:00am 13.5 12.5 7.5 67 3.0 NE 2 6 1 3 1017.7 1017.4 0.0
15/08:30am 12.2 11.0 6.5 68 2.8 NNE 2 4 1 2 1017.9 1017.5 0.0
15/08:00am 10.1 9.1 5.5 73 2.2 CALM 0 0 0 0 1017.7 1017.4 0.0
15/07:30am 9.9 9.0 6.1 77 1.8 CALM 0 0 0 0 1017.6 1017.3 0.0
15/07:00am 7.2 5.9 4.2 81 1.3 CALM 0 0 0 0 1017.6 1017.3 0.0
15/06:30am 6.7 5.3 3.7 81 1.3 CALM 0 0 0 0 1017.5 1017.2 0.0
15/06:00am 7.0 5.6 3.4 78 1.6 CALM 0 0 0 0 1017.4 1017.1 0.0
15/05:30am 7.0 5.6 3.6 79 1.5 CALM 0 0 0 0 1017.4 1017.1 0.0
15/05:00am 6.6 5.2 3.6 81 1.3 CALM 0 0 0 0 1017.4 1017.1 0.0
15/04:30am 7.0 5.6 3.8 80 1.4 CALM 0 0 0 0 1017.4 1017.1 0.0
15/04:00am 6.9 5.6 4.0 82 1.3 CALM 0 0 0 0 1017.6 1017.3 0.0
15/03:30am 6.9 5.6 4.0 82 1.3 CALM 0 0 0 0 1017.7 1017.4 0.0
15/03:00am 6.9 5.6 4.0 82 1.3 CALM 0 0 0 0 1017.9 1017.5 0.0
15/02:30am 7.0 5.7 4.0 81 1.3 CALM 0 0 0 0 1018.2 1017.8 0.0
15/02:00am 7.0 5.7 4.1 82 1.3 CALM 0 0 0 0 1018.5 1018.1 0.0
15/01:30am 7.0 5.7 4.1 82 1.3 CALM 0 0 0 0 1018.7 1018.4 0.0
15/01:00am 7.2 6.0 4.5 83 1.2 CALM 0 0 0 0 1019.0 1018.7 0.0
15/12:30am 7.3 6.1 4.4 82 1.3 CALM 0 0 0 0 1019.0 1018.7 0.0
15/12:00am 7.0 5.9 5.0 87 0.9 CALM 0 0 0 0 1019.1 1018.8 0.0
 
Date/Time
EST
Temp
°C
App
Temp
°C
Dew
Point
Rel
Hum
%
Delta-T
°C
Wind Press
QNH
hPa
Press
MSL
hPa
Rain
since 9 am
mm
Dir
 
Spd
km/h
Gust
km/h
Spd
kts
Gust
kts
14/11:30pm 7.0 5.9 5.0 87 0.9 CALM 0 0 0 0 1019.4 1019.1 0.0
14/11:00pm 6.8 5.7 5.3 90 0.7 CALM 0 0 0 0 1019.4 1019.1 0.0
14/10:30pm 7.0 6.0 5.6 91 0.6 CALM 0 0 0 0 1019.8 1019.4 0.0
14/10:00pm 6.8 5.7 5.3 90 0.7 CALM 0 0 0 0 1020.0 1019.7 0.0
14/09:30pm 7.1 6.1 5.6 90 0.7 CALM 0 0 0 0 1019.8 1019.4 0.0
14/09:00pm 7.5 6.5 5.5 87 0.9 CALM 0 0 0 0 1019.8 1019.4 0.0
14/08:30pm 7.8 6.7 5.3 84 1.2 CALM 0 0 0 0 1019.7 1019.3 0.0
14/08:00pm 7.7 6.7 5.8 88 0.9 CALM 0 0 0 0 1019.4 1019.1 0.0
14/07:30pm 8.0 7.0 5.6 85 1.1 CALM 0 0 0 0 1019.3 1019.0 0.0
14/07:00pm 8.0 7.1 6.0 87 0.9 CALM 0 0 0 0 1019.1 1018.8 0.0
14/06:30pm 8.1 7.2 5.9 86 1.0 CALM 0 2 0 1 1018.9 1018.6 0.0
14/06:00pm 8.7 7.8 6.2 84 1.2 CALM 0 2 0 1 1018.8 1018.5 0.0
14/05:30pm 9.3 8.1 6.4 82 1.4 SW 2 4 1 2 1018.8 1018.5 0.0
14/05:00pm 10.5 9.4 6.8 78 1.8 SSW 2 6 1 3 1018.7 1018.4 0.0
14/04:30pm 11.7 10.6 7.0 73 2.3 SW 2 6 1 3 1018.6 1018.3 0.0
14/04:00pm 12.1 11.1 7.2 72 2.4 SSW 2 6 1 3 1018.6 1018.3 0.0
14/03:30pm 11.9 10.6 6.0 67 2.9 SW 2 6 1 3 1018.6 1018.3 0.0
14/03:00pm 13.4 12.1 6.0 61 3.6 SSW 2 6 1 3 1018.6 1018.3 0.0
14/02:30pm 13.5 11.9 6.4 62 3.5 SW 4 6 2 3 1018.4 1018.0 0.0
14/02:00pm 14.1 13.0 6.7 61 3.7 W 2 7 1 4 1018.4 1018.0 0.0
14/01:30pm 14.0 12.2 5.6 57 4.1 SW 4 7 2 4 1018.6 1018.3 0.0
14/01:00pm 13.9 12.5 5.5 57 4.1 SSW 2 7 1 4 1018.8 1018.5 0.0
14/12:30pm 13.7 12.2 6.8 63 3.5 SW 4 9 2 5 1019.1 1018.8 0.0
14/12:00pm 13.1 11.2 6.7 65 3.2 SW 6 13 3 7 1019.4 1019.1 0.0
14/11:30am 13.5 13.0 7.9 69 2.9 CALM 0 2 0 1 1019.7 1019.3 0.0
14/11:00am 12.1 11.1 7.4 73 2.4 SSW 2 6 1 3 1019.9 1019.5 0.0
14/10:30am 12.8 12.4 8.3 74 2.3 CALM 0 2 0 1 1020.2 1019.9 0.0
14/10:00am 11.7 10.7 7.4 75 2.1 SW 2 4 1 2 1020.3 1020.0 0.0
14/09:30am 11.9 10.8 6.8 71 2.5 WSW 2 7 1 4 1020.5 1020.2 0.0
14/09:00am 10.9 10.2 7.0 77 1.9 CALM 0 2 0 1 1020.8 1020.5 0.0
14/08:30am 11.4 10.8 7.5 77 2.0 CALM 0 0 0 0 1020.8 1020.5 0.0
14/08:00am 10.9 10.3 7.6 80 1.6 CALM 0 2 0 1 1020.7 1020.4 0.0
14/07:30am 9.7 9.2 7.8 88 0.9 CALM 0 0 0 0 1020.8 1020.5 0.0
14/07:00am 7.7 7.0 7.0 95 0.3 CALM 0 0 0 0 1020.6 1020.3 0.0
14/06:30am 7.2 6.4 6.5 95 0.3 CALM 0 0 0 0 1020.6 1020.3 0.0
14/06:00am 7.4 6.6 6.5 94 0.4 CALM 0 0 0 0 1020.6 1020.3 0.0
14/05:30am 7.5 6.7 6.4 93 0.5 CALM 0 0 0 0 1020.8 1020.5 0.0
14/05:00am 7.5 6.7 6.4 93 0.5 CALM 0 0 0 0 1020.8 1020.5 0.0
14/04:30am 7.7 6.9 6.5 92 0.6 CALM 0 0 0 0 1020.8 1020.5 0.0
14/04:00am 8.0 7.3 6.8 92 0.6 CALM 0 0 0 0 1020.8 1020.5 0.0
14/03:30am 7.8 7.1 6.9 94 0.4 CALM 0 0 0 0 1020.9 1020.6 0.0
14/03:00am 7.8 7.1 7.1 95 0.3 CALM 0 0 0 0 1021.0 1020.7 0.0
14/02:30am 7.6 6.9 7.0 96 0.3 CALM 0 0 0 0 1021.2 1020.8 0.0
14/02:00am 7.4 6.7 6.8 96 0.3 CALM 0 0 0 0 1021.5 1021.2 0.0
14/01:30am 7.2 6.4 6.5 95 0.3 CALM 0 0 0 0 1021.6 1021.3 0.0
14/01:00am 7.3 6.5 6.6 95 0.3 CALM 0 0 0 0 1021.7 1021.4 0.0
14/12:30am 7.3 6.5 6.6 95 0.3 CALM 0 0 0 0 1022.0 1021.7 0.0
14/12:00am 7.3 6.5 6.4 94 0.4 CALM 0 0 0 0 1022.2 1021.9 0.0
 
Date/Time
EST
Temp
°C
App
Temp
°C
Dew
Point
Rel
Hum
%
Delta-T
°C
Wind Press
QNH
hPa
Press
MSL
hPa
Rain
since 9 am
mm
Dir
 
Spd
km/h
Gust
km/h
Spd
kts
Gust
kts
13/11:30pm 7.4 6.6 6.7 95 0.3 CALM 0 0 0 0 1022.3 1022.0 0.0
13/11:00pm 7.4 6.6 6.5 94 0.4 CALM 0 0 0 0 1022.4 1022.1 0.0
13/10:30pm 7.8 7.1 6.9 94 0.4 CALM 0 0 0 0 1022.4 1022.1 0.0
13/10:00pm 7.8 7.0 6.7 93 0.5 CALM 0 0 0 0 1022.5 1022.2 0.0
13/09:30pm 8.4 7.8 7.2 92 0.6 CALM 0 0 0 0 1022.5 1022.2 0.0
13/09:00pm 8.5 7.8 7.1 91 0.7 CALM 0 0 0 0 1022.5 1022.2 0.0
13/08:30pm 8.8 8.2 7.4 91 0.7 CALM 0 0 0 0 1022.7 1022.5 0.0
13/08:00pm 8.9 8.3 7.4 90 0.7 CALM 0 0 0 0 1022.7 1022.5 0.0
13/07:30pm 8.8 8.1 7.1 89 0.8 CALM 0 0 0 0 1022.6 1022.4 0.0

Other Formats:

Comma delimited format used in spreadsheet applications
http://www.bom.gov.au/fwo/IDV60801/IDV60801.94914.axf

JavaScript Object Notation format (JSON) in row-major order
http://www.bom.gov.au/fwo/IDV60801/IDV60801.94914.json